sensor_id;sensor_type;location;lat;lon;timestamp;P1;durP1;ratioP1;P2;durP2;ratioP2
76155;SDS011;64906;51.290;7.348;2023-03-21T00:01:28;14.98;;;10.70;;
76155;SDS011;64906;51.290;7.348;2023-03-21T00:03:53;14.20;;;9.77;;
76155;SDS011;64906;51.290;7.348;2023-03-21T00:06:18;14.03;;;9.47;;
76155;SDS011;64906;51.290;7.348;2023-03-21T00:08:43;13.97;;;10.37;;
76155;SDS011;64906;51.290;7.348;2023-03-21T00:11:10;13.38;;;10.10;;
76155;SDS011;64906;51.290;7.348;2023-03-21T00:13:37;14.27;;;10.77;;
76155;SDS011;64906;51.290;7.348;2023-03-21T00:16:06;15.20;;;10.73;;
76155;SDS011;64906;51.290;7.348;2023-03-21T00:18:39;13.13;;;10.57;;
76155;SDS011;64906;51.290;7.348;2023-03-21T00:21:10;15.20;;;10.48;;
76155;SDS011;64906;51.290;7.348;2023-03-21T00:23:39;13.70;;;9.90;;
76155;SDS011;64906;51.290;7.348;2023-03-21T00:26:05;13.75;;;10.52;;
76155;SDS011;64906;51.290;7.348;2023-03-21T00:28:37;15.00;;;10.07;;
76155;SDS011;64906;51.290;7.348;2023-03-21T00:31:04;14.90;;;10.20;;
76155;SDS011;64906;51.290;7.348;2023-03-21T00:33:30;14.70;;;10.30;;
76155;SDS011;64906;51.290;7.348;2023-03-21T00:35:56;13.55;;;9.98;;
76155;SDS011;64906;51.290;7.348;2023-03-21T00:38:21;13.93;;;9.70;;
76155;SDS011;64906;51.290;7.348;2023-03-21T00:40:48;12.63;;;9.70;;
76155;SDS011;64906;51.290;7.348;2023-03-21T00:43:14;14.32;;;10.55;;
76155;SDS011;64906;51.290;7.348;2023-03-21T00:45:41;13.52;;;10.13;;
76155;SDS011;64906;51.290;7.348;2023-03-21T00:48:07;12.73;;;9.57;;
76155;SDS011;64906;51.290;7.348;2023-03-21T00:50:33;11.90;;;9.15;;
76155;SDS011;64906;51.290;7.348;2023-03-21T00:52:58;13.73;;;9.53;;
76155;SDS011;64906;51.290;7.348;2023-03-21T00:55:24;12.63;;;9.52;;
76155;SDS011;64906;51.290;7.348;2023-03-21T00:57:50;13.63;;;8.93;;
76155;SDS011;64906;51.290;7.348;2023-03-21T01:00:16;11.37;;;8.77;;
76155;SDS011;64906;51.290;7.348;2023-03-21T01:02:43;13.18;;;9.35;;
76155;SDS011;64906;51.290;7.348;2023-03-21T01:05:24;12.05;;;8.95;;
76155;SDS011;64906;51.290;7.348;2023-03-21T01:08:10;12.18;;;8.80;;
76155;SDS011;64906;51.290;7.348;2023-03-21T01:10:40;12.90;;;9.48;;
76155;SDS011;64906;51.290;7.348;2023-03-21T01:13:07;12.00;;;8.60;;
76155;SDS011;64906;51.290;7.348;2023-03-21T01:15:33;12.27;;;9.23;;
76155;SDS011;64906;51.290;7.348;2023-03-21T01:17:59;12.48;;;9.30;;
76155;SDS011;64906;51.290;7.348;2023-03-21T01:20:24;14.50;;;9.10;;
76155;SDS011;64906;51.290;7.348;2023-03-21T01:22:50;12.43;;;9.35;;
76155;SDS011;64906;51.290;7.348;2023-03-21T01:25:15;12.90;;;9.50;;
76155;SDS011;64906;51.290;7.348;2023-03-21T01:27:40;13.73;;;9.30;;
76155;SDS011;64906;51.290;7.348;2023-03-21T01:30:06;11.10;;;8.37;;
76155;SDS011;64906;51.290;7.348;2023-03-21T01:32:32;12.32;;;8.80;;
76155;SDS011;64906;51.290;7.348;2023-03-21T01:34:57;11.87;;;8.73;;
76155;SDS011;64906;51.290;7.348;2023-03-21T01:37:22;12.47;;;9.07;;
76155;SDS011;64906;51.290;7.348;2023-03-21T01:39:50;12.75;;;8.75;;
76155;SDS011;64906;51.290;7.348;2023-03-21T01:42:15;12.93;;;8.73;;
76155;SDS011;64906;51.290;7.348;2023-03-21T01:44:55;10.93;;;7.72;;
76155;SDS011;64906;51.290;7.348;2023-03-21T01:47:26;11.15;;;8.30;;
76155;SDS011;64906;51.290;7.348;2023-03-21T01:49:52;11.30;;;8.65;;
76155;SDS011;64906;51.290;7.348;2023-03-21T01:52:23;10.70;;;7.95;;
76155;SDS011;64906;51.290;7.348;2023-03-21T01:54:52;11.45;;;8.73;;
76155;SDS011;64906;51.290;7.348;2023-03-21T01:57:24;11.50;;;8.25;;
76155;SDS011;64906;51.290;7.348;2023-03-21T01:59:56;12.10;;;8.32;;
76155;SDS011;64906;51.290;7.348;2023-03-21T02:02:26;11.38;;;8.75;;
76155;SDS011;64906;51.290;7.348;2023-03-21T02:04:53;11.88;;;7.93;;
76155;SDS011;64906;51.290;7.348;2023-03-21T02:07:28;11.02;;;8.05;;
76155;SDS011;64906;51.290;7.348;2023-03-21T02:09:59;11.70;;;8.48;;
76155;SDS011;64906;51.290;7.348;2023-03-21T02:12:26;10.75;;;8.23;;
76155;SDS011;64906;51.290;7.348;2023-03-21T02:14:52;12.25;;;8.38;;
76155;SDS011;64906;51.290;7.348;2023-03-21T02:22:51;11.00;;;7.95;;
76155;SDS011;64906;51.290;7.348;2023-03-21T02:44:35;10.45;;;7.25;;
76155;SDS011;64906;51.290;7.348;2023-03-21T02:47:04;10.88;;;7.07;;
76155;SDS011;64906;51.290;7.348;2023-03-21T02:49:43;10.27;;;7.30;;
76155;SDS011;64906;51.290;7.348;2023-03-21T02:52:16;9.88;;;6.97;;
76155;SDS011;64906;51.290;7.348;2023-03-21T02:54:45;10.95;;;7.40;;
76155;SDS011;64906;51.290;7.348;2023-03-21T02:57:12;10.60;;;7.35;;
76155;SDS011;64906;51.290;7.348;2023-03-21T02:59:38;10.13;;;7.20;;
76155;SDS011;64906;51.290;7.348;2023-03-21T03:02:05;11.02;;;7.18;;
76155;SDS011;64906;51.290;7.348;2023-03-21T03:04:31;10.40;;;7.35;;
76155;SDS011;64906;51.290;7.348;2023-03-21T03:07:02;10.77;;;7.13;;
76155;SDS011;64906;51.290;7.348;2023-03-21T03:17:48;9.77;;;6.53;;
76155;SDS011;64906;51.290;7.348;2023-03-21T03:20:25;11.07;;;7.40;;
76155;SDS011;64906;51.290;7.348;2023-03-21T03:28:19;10.15;;;6.88;;
76155;SDS011;64906;51.290;7.348;2023-03-21T03:30:49;9.63;;;6.82;;
76155;SDS011;64906;51.290;7.348;2023-03-21T03:33:15;10.13;;;7.22;;
76155;SDS011;64906;51.290;7.348;2023-03-21T03:38:13;9.25;;;6.32;;
76155;SDS011;64906;51.290;7.348;2023-03-21T03:40:45;10.02;;;6.95;;
76155;SDS011;64906;51.290;7.348;2023-03-21T03:43:15;9.60;;;6.10;;
76155;SDS011;64906;51.290;7.348;2023-03-21T03:45:48;9.95;;;6.68;;
76155;SDS011;64906;51.290;7.348;2023-03-21T03:48:40;8.55;;;6.18;;
76155;SDS011;64906;51.290;7.348;2023-03-21T03:51:12;9.32;;;6.70;;
76155;SDS011;64906;51.290;7.348;2023-03-21T03:53:54;9.68;;;6.30;;
76155;SDS011;64906;51.290;7.348;2023-03-21T03:56:24;9.50;;;6.72;;
76155;SDS011;64906;51.290;7.348;2023-03-21T03:58:50;9.75;;;6.55;;
76155;SDS011;64906;51.290;7.348;2023-03-21T04:01:15;8.63;;;6.18;;
76155;SDS011;64906;51.290;7.348;2023-03-21T04:03:42;10.88;;;6.72;;
76155;SDS011;64906;51.290;7.348;2023-03-21T04:06:11;8.40;;;6.00;;
76155;SDS011;64906;51.290;7.348;2023-03-21T04:08:36;8.70;;;6.00;;
76155;SDS011;64906;51.290;7.348;2023-03-21T04:11:01;8.00;;;5.17;;
76155;SDS011;64906;51.290;7.348;2023-03-21T04:13:27;8.48;;;5.85;;
76155;SDS011;64906;51.290;7.348;2023-03-21T04:15:52;9.47;;;6.10;;
76155;SDS011;64906;51.290;7.348;2023-03-21T04:18:17;8.33;;;5.90;;
76155;SDS011;64906;51.290;7.348;2023-03-21T04:20:43;8.48;;;6.20;;
76155;SDS011;64906;51.290;7.348;2023-03-21T04:23:09;8.75;;;5.53;;
76155;SDS011;64906;51.290;7.348;2023-03-21T04:25:35;7.70;;;5.38;;
76155;SDS011;64906;51.290;7.348;2023-03-21T04:28:02;9.00;;;6.10;;
76155;SDS011;64906;51.290;7.348;2023-03-21T04:30:27;8.82;;;5.63;;
76155;SDS011;64906;51.290;7.348;2023-03-21T04:32:53;7.38;;;5.40;;
76155;SDS011;64906;51.290;7.348;2023-03-21T04:35:21;9.52;;;6.00;;
76155;SDS011;64906;51.290;7.348;2023-03-21T04:37:47;8.68;;;5.82;;
76155;SDS011;64906;51.290;7.348;2023-03-21T04:40:12;6.82;;;5.10;;
76155;SDS011;64906;51.290;7.348;2023-03-21T04:42:41;8.77;;;5.93;;
76155;SDS011;64906;51.290;7.348;2023-03-21T04:45:07;8.55;;;5.65;;
76155;SDS011;64906;51.290;7.348;2023-03-21T04:47:32;8.20;;;5.88;;
76155;SDS011;64906;51.290;7.348;2023-03-21T04:49:58;7.70;;;5.03;;
76155;SDS011;64906;51.290;7.348;2023-03-21T04:52:23;8.07;;;5.40;;
76155;SDS011;64906;51.290;7.348;2023-03-21T04:54:49;8.55;;;6.25;;
76155;SDS011;64906;51.290;7.348;2023-03-21T04:57:14;8.85;;;5.78;;
76155;SDS011;64906;51.290;7.348;2023-03-21T04:59:39;8.07;;;5.50;;
76155;SDS011;64906;51.290;7.348;2023-03-21T05:02:05;8.90;;;5.35;;
76155;SDS011;64906;51.290;7.348;2023-03-21T05:04:31;8.60;;;5.30;;
76155;SDS011;64906;51.290;7.348;2023-03-21T05:06:56;9.57;;;5.60;;
76155;SDS011;64906;51.290;7.348;2023-03-21T05:09:22;7.90;;;5.25;;
76155;SDS011;64906;51.290;7.348;2023-03-21T05:11:47;8.13;;;5.63;;
76155;SDS011;64906;51.290;7.348;2023-03-21T05:14:18;7.95;;;5.20;;
76155;SDS011;64906;51.290;7.348;2023-03-21T05:16:46;7.60;;;4.95;;
76155;SDS011;64906;51.290;7.348;2023-03-21T05:19:20;7.18;;;4.90;;
76155;SDS011;64906;51.290;7.348;2023-03-21T05:21:58;7.70;;;5.30;;
76155;SDS011;64906;51.290;7.348;2023-03-21T05:24:28;7.78;;;5.00;;
76155;SDS011;64906;51.290;7.348;2023-03-21T05:26:54;7.95;;;5.47;;
76155;SDS011;64906;51.290;7.348;2023-03-21T05:29:20;7.43;;;4.95;;
76155;SDS011;64906;51.290;7.348;2023-03-21T05:31:45;7.50;;;4.47;;
76155;SDS011;64906;51.290;7.348;2023-03-21T05:34:11;7.80;;;5.22;;
76155;SDS011;64906;51.290;7.348;2023-03-21T05:36:37;7.07;;;5.00;;
76155;SDS011;64906;51.290;7.348;2023-03-21T05:39:02;8.10;;;4.90;;
76155;SDS011;64906;51.290;7.348;2023-03-21T05:41:29;6.82;;;4.60;;
76155;SDS011;64906;51.290;7.348;2023-03-21T05:43:55;7.57;;;4.97;;
76155;SDS011;64906;51.290;7.348;2023-03-21T05:46:20;7.97;;;5.20;;
76155;SDS011;64906;51.290;7.348;2023-03-21T05:48:46;6.40;;;4.60;;
76155;SDS011;64906;51.290;7.348;2023-03-21T05:51:11;7.40;;;5.13;;
76155;SDS011;64906;51.290;7.348;2023-03-21T05:53:36;7.40;;;4.77;;
76155;SDS011;64906;51.290;7.348;2023-03-21T05:56:02;6.63;;;4.20;;
76155;SDS011;64906;51.290;7.348;2023-03-21T05:58:28;7.68;;;4.03;;
76155;SDS011;64906;51.290;7.348;2023-03-21T06:00:53;7.45;;;4.68;;
76155;SDS011;64906;51.290;7.348;2023-03-21T06:03:19;7.68;;;4.93;;
76155;SDS011;64906;51.290;7.348;2023-03-21T06:05:44;7.93;;;5.00;;
76155;SDS011;64906;51.290;7.348;2023-03-21T06:08:09;7.07;;;4.78;;
76155;SDS011;64906;51.290;7.348;2023-03-21T06:10:35;7.30;;;4.43;;
76155;SDS011;64906;51.290;7.348;2023-03-21T06:13:00;7.07;;;4.93;;
76155;SDS011;64906;51.290;7.348;2023-03-21T06:15:25;7.65;;;4.47;;
76155;SDS011;64906;51.290;7.348;2023-03-21T06:17:51;6.87;;;4.20;;
76155;SDS011;64906;51.290;7.348;2023-03-21T06:20:16;6.78;;;4.72;;
76155;SDS011;64906;51.290;7.348;2023-03-21T06:22:42;8.18;;;4.72;;
76155;SDS011;64906;51.290;7.348;2023-03-21T06:25:07;7.13;;;4.83;;
76155;SDS011;64906;51.290;7.348;2023-03-21T06:27:33;6.40;;;4.43;;
76155;SDS011;64906;51.290;7.348;2023-03-21T06:29:59;7.63;;;4.75;;
76155;SDS011;64906;51.290;7.348;2023-03-21T06:32:25;7.25;;;5.07;;
76155;SDS011;64906;51.290;7.348;2023-03-21T06:34:51;7.22;;;4.80;;
76155;SDS011;64906;51.290;7.348;2023-03-21T06:37:17;7.80;;;4.63;;
76155;SDS011;64906;51.290;7.348;2023-03-21T06:39:43;8.05;;;5.25;;
76155;SDS011;64906;51.290;7.348;2023-03-21T06:42:08;8.35;;;4.95;;
76155;SDS011;64906;51.290;7.348;2023-03-21T06:44:34;7.43;;;5.05;;
76155;SDS011;64906;51.290;7.348;2023-03-21T06:47:00;7.60;;;4.95;;
76155;SDS011;64906;51.290;7.348;2023-03-21T06:49:25;7.10;;;4.77;;
76155;SDS011;64906;51.290;7.348;2023-03-21T06:51:51;7.68;;;4.95;;
76155;SDS011;64906;51.290;7.348;2023-03-21T06:54:17;7.03;;;4.30;;
76155;SDS011;64906;51.290;7.348;2023-03-21T06:56:43;6.63;;;4.38;;
76155;SDS011;64906;51.290;7.348;2023-03-21T06:59:09;7.03;;;4.72;;
76155;SDS011;64906;51.290;7.348;2023-03-21T07:01:34;7.40;;;4.82;;
76155;SDS011;64906;51.290;7.348;2023-03-21T07:04:00;7.17;;;4.53;;
76155;SDS011;64906;51.290;7.348;2023-03-21T07:06:26;7.53;;;4.20;;
76155;SDS011;64906;51.290;7.348;2023-03-21T07:08:52;6.88;;;4.47;;
76155;SDS011;64906;51.290;7.348;2023-03-21T07:11:18;8.10;;;4.80;;
76155;SDS011;64906;51.290;7.348;2023-03-21T07:13:44;8.00;;;4.45;;
76155;SDS011;64906;51.290;7.348;2023-03-21T07:16:10;7.53;;;4.68;;
76155;SDS011;64906;51.290;7.348;2023-03-21T07:18:36;6.37;;;4.33;;
76155;SDS011;64906;51.290;7.348;2023-03-21T07:21:02;7.40;;;4.88;;
76155;SDS011;64906;51.290;7.348;2023-03-21T07:23:28;7.60;;;4.53;;
76155;SDS011;64906;51.290;7.348;2023-03-21T07:25:53;7.40;;;4.45;;
76155;SDS011;64906;51.290;7.348;2023-03-21T07:28:20;7.90;;;4.88;;
76155;SDS011;64906;51.290;7.348;2023-03-21T07:30:51;7.53;;;4.68;;
76155;SDS011;64906;51.290;7.348;2023-03-21T07:33:21;8.98;;;5.25;;
76155;SDS011;64906;51.290;7.348;2023-03-21T07:35:47;7.00;;;4.88;;
76155;SDS011;64906;51.290;7.348;2023-03-21T07:38:14;7.28;;;4.70;;
76155;SDS011;64906;51.290;7.348;2023-03-21T07:40:40;7.22;;;4.63;;
76155;SDS011;64906;51.290;7.348;2023-03-21T07:43:06;6.70;;;3.65;;
76155;SDS011;64906;51.290;7.348;2023-03-21T07:45:31;5.93;;;3.70;;
76155;SDS011;64906;51.290;7.348;2023-03-21T07:47:56;6.93;;;4.30;;
76155;SDS011;64906;51.290;7.348;2023-03-21T07:50:22;7.00;;;4.73;;
76155;SDS011;64906;51.290;7.348;2023-03-21T07:52:47;7.33;;;4.73;;
76155;SDS011;64906;51.290;7.348;2023-03-21T07:55:13;6.97;;;4.35;;
76155;SDS011;64906;51.290;7.348;2023-03-21T07:57:38;7.25;;;4.57;;
76155;SDS011;64906;51.290;7.348;2023-03-21T08:00:04;6.63;;;4.10;;
76155;SDS011;64906;51.290;7.348;2023-03-21T08:02:31;7.40;;;4.70;;
76155;SDS011;64906;51.290;7.348;2023-03-21T08:04:56;12.27;;;6.90;;
76155;SDS011;64906;51.290;7.348;2023-03-21T08:07:21;11.60;;;6.60;;
76155;SDS011;64906;51.290;7.348;2023-03-21T08:09:47;10.37;;;5.80;;
76155;SDS011;64906;51.290;7.348;2023-03-21T08:12:12;11.32;;;6.70;;
76155;SDS011;64906;51.290;7.348;2023-03-21T08:14:38;8.65;;;5.88;;
76155;SDS011;64906;51.290;7.348;2023-03-21T08:17:03;9.18;;;6.15;;
76155;SDS011;64906;51.290;7.348;2023-03-21T08:19:30;8.77;;;6.00;;
76155;SDS011;64906;51.290;7.348;2023-03-21T08:21:55;9.70;;;6.13;;
76155;SDS011;64906;51.290;7.348;2023-03-21T08:24:24;9.65;;;6.30;;
76155;SDS011;64906;51.290;7.348;2023-03-21T08:26:50;9.88;;;6.20;;
76155;SDS011;64906;51.290;7.348;2023-03-21T08:29:16;9.90;;;6.07;;
76155;SDS011;64906;51.290;7.348;2023-03-21T08:31:41;9.93;;;6.55;;
76155;SDS011;64906;51.290;7.348;2023-03-21T08:34:07;10.07;;;6.07;;
76155;SDS011;64906;51.290;7.348;2023-03-21T08:36:32;8.50;;;6.22;;
76155;SDS011;64906;51.290;7.348;2023-03-21T08:39:00;11.48;;;6.38;;
76155;SDS011;64906;51.290;7.348;2023-03-21T08:41:30;9.35;;;6.18;;
76155;SDS011;64906;51.290;7.348;2023-03-21T08:43:56;9.52;;;5.80;;
76155;SDS011;64906;51.290;7.348;2023-03-21T08:46:21;10.45;;;6.60;;
76155;SDS011;64906;51.290;7.348;2023-03-21T08:48:47;9.93;;;6.50;;
76155;SDS011;64906;51.290;7.348;2023-03-21T08:51:12;9.07;;;6.43;;
76155;SDS011;64906;51.290;7.348;2023-03-21T08:53:37;9.57;;;6.57;;
76155;SDS011;64906;51.290;7.348;2023-03-21T08:56:05;9.07;;;6.15;;
76155;SDS011;64906;51.290;7.348;2023-03-21T08:58:31;9.40;;;6.63;;
76155;SDS011;64906;51.290;7.348;2023-03-21T09:00:56;12.97;;;8.17;;
76155;SDS011;64906;51.290;7.348;2023-03-21T09:03:22;13.80;;;8.00;;
76155;SDS011;64906;51.290;7.348;2023-03-21T09:05:47;12.07;;;7.20;;
76155;SDS011;64906;51.290;7.348;2023-03-21T09:08:14;10.25;;;7.32;;
76155;SDS011;64906;51.290;7.348;2023-03-21T09:10:39;12.80;;;7.88;;
76155;SDS011;64906;51.290;7.348;2023-03-21T09:13:04;12.82;;;8.82;;
76155;SDS011;64906;51.290;7.348;2023-03-21T09:15:30;10.43;;;7.40;;
76155;SDS011;64906;51.290;7.348;2023-03-21T09:17:56;10.75;;;7.50;;
76155;SDS011;64906;51.290;7.348;2023-03-21T09:20:36;13.15;;;7.95;;
76155;SDS011;64906;51.290;7.348;2023-03-21T09:23:02;12.80;;;8.57;;
76155;SDS011;64906;51.290;7.348;2023-03-21T09:25:28;12.63;;;8.50;;
76155;SDS011;64906;51.290;7.348;2023-03-21T09:27:55;16.23;;;9.65;;
76155;SDS011;64906;51.290;7.348;2023-03-21T09:30:22;18.50;;;11.00;;
76155;SDS011;64906;51.290;7.348;2023-03-21T09:32:47;22.83;;;16.90;;
76155;SDS011;64906;51.290;7.348;2023-03-21T09:35:14;26.90;;;19.00;;
76155;SDS011;64906;51.290;7.348;2023-03-21T09:37:42;30.35;;;21.17;;
76155;SDS011;64906;51.290;7.348;2023-03-21T09:51:11;45.13;;;31.35;;
76155;SDS011;64906;51.290;7.348;2023-03-21T09:53:40;53.53;;;36.42;;
76155;SDS011;64906;51.290;7.348;2023-03-21T09:56:07;56.58;;;40.83;;
76155;SDS011;64906;51.290;7.348;2023-03-21T09:58:38;54.92;;;41.13;;
76155;SDS011;64906;51.290;7.348;2023-03-21T10:03:34;63.90;;;45.35;;
76155;SDS011;64906;51.290;7.348;2023-03-21T10:06:01;69.05;;;48.67;;
76155;SDS011;64906;51.290;7.348;2023-03-21T10:08:33;71.93;;;51.45;;
76155;SDS011;64906;51.290;7.348;2023-03-21T10:11:05;74.43;;;51.58;;
76155;SDS011;64906;51.290;7.348;2023-03-21T10:13:39;73.72;;;54.20;;
76155;SDS011;64906;51.290;7.348;2023-03-21T10:18:50;76.65;;;56.67;;
76155;SDS011;64906;51.290;7.348;2023-03-21T10:21:19;77.68;;;57.35;;
76155;SDS011;64906;51.290;7.348;2023-03-21T10:23:46;88.18;;;61.38;;
76155;SDS011;64906;51.290;7.348;2023-03-21T10:26:13;84.57;;;59.85;;
76155;SDS011;64906;51.290;7.348;2023-03-21T10:28:39;77.68;;;53.72;;
76155;SDS011;64906;51.290;7.348;2023-03-21T10:31:07;82.85;;;60.92;;
76155;SDS011;64906;51.290;7.348;2023-03-21T10:33:37;78.47;;;55.45;;
76155;SDS011;64906;51.290;7.348;2023-03-21T10:36:08;88.50;;;63.33;;
76155;SDS011;64906;51.290;7.348;2023-03-21T10:38:56;83.93;;;63.35;;
76155;SDS011;64906;51.290;7.348;2023-03-21T10:41:26;85.97;;;60.85;;
76155;SDS011;64906;51.290;7.348;2023-03-21T10:48:55;84.75;;;60.22;;
76155;SDS011;64906;51.290;7.348;2023-03-21T10:51:27;83.57;;;58.28;;
76155;SDS011;64906;51.290;7.348;2023-03-21T10:53:57;79.57;;;59.40;;
76155;SDS011;64906;51.290;7.348;2023-03-21T10:56:26;80.85;;;59.78;;
76155;SDS011;64906;51.290;7.348;2023-03-21T10:58:55;79.90;;;58.47;;
76155;SDS011;64906;51.290;7.348;2023-03-21T11:01:28;82.50;;;59.97;;
76155;SDS011;64906;51.290;7.348;2023-03-21T11:04:00;79.93;;;57.83;;
76155;SDS011;64906;51.290;7.348;2023-03-21T11:06:31;81.93;;;58.45;;
76155;SDS011;64906;51.290;7.348;2023-03-21T11:09:04;76.10;;;56.60;;
76155;SDS011;64906;51.290;7.348;2023-03-21T11:11:36;75.97;;;56.10;;
76155;SDS011;64906;51.290;7.348;2023-03-21T11:14:04;77.15;;;57.13;;
76155;SDS011;64906;51.290;7.348;2023-03-21T11:19:00;90.38;;;66.93;;
76155;SDS011;64906;51.290;7.348;2023-03-21T11:21:36;89.43;;;67.70;;
76155;SDS011;64906;51.290;7.348;2023-03-21T11:24:02;94.95;;;70.47;;
76155;SDS011;64906;51.290;7.348;2023-03-21T11:26:30;93.50;;;66.78;;
76155;SDS011;64906;51.290;7.348;2023-03-21T11:29:00;94.35;;;73.50;;
76155;SDS011;64906;51.290;7.348;2023-03-21T11:31:36;91.85;;;65.03;;
76155;SDS011;64906;51.290;7.348;2023-03-21T11:34:05;101.03;;;73.55;;
76155;SDS011;64906;51.290;7.348;2023-03-21T11:36:33;97.05;;;73.72;;
76155;SDS011;64906;51.290;7.348;2023-03-21T11:41:33;101.38;;;75.30;;
76155;SDS011;64906;51.290;7.348;2023-03-21T11:43:59;101.65;;;73.22;;
76155;SDS011;64906;51.290;7.348;2023-03-21T11:46:27;97.07;;;73.10;;
76155;SDS011;64906;51.290;7.348;2023-03-21T11:48:55;93.25;;;71.38;;
76155;SDS011;64906;51.290;7.348;2023-03-21T11:54:06;91.40;;;69.38;;
76155;SDS011;64906;51.290;7.348;2023-03-21T11:56:36;87.88;;;66.45;;
76155;SDS011;64906;51.290;7.348;2023-03-21T12:07:06;85.45;;;62.17;;
76155;SDS011;64906;51.290;7.348;2023-03-21T12:09:45;87.88;;;62.17;;
76155;SDS011;64906;51.290;7.348;2023-03-21T12:12:33;81.97;;;60.78;;
76155;SDS011;64906;51.290;7.348;2023-03-21T12:20:39;80.28;;;51.22;;
76155;SDS011;64906;51.290;7.348;2023-03-21T12:23:20;76.50;;;55.15;;
76155;SDS011;64906;51.290;7.348;2023-03-21T12:31:24;75.35;;;54.10;;
76155;SDS011;64906;51.290;7.348;2023-03-21T12:39:20;72.20;;;49.97;;
76155;SDS011;64906;51.290;7.348;2023-03-21T12:44:44;67.47;;;48.38;;
76155;SDS011;64906;51.290;7.348;2023-03-21T12:47:27;63.65;;;46.42;;
76155;SDS011;64906;51.290;7.348;2023-03-21T12:49:58;63.83;;;44.17;;
76155;SDS011;64906;51.290;7.348;2023-03-21T12:52:34;56.80;;;42.53;;
76155;SDS011;64906;51.290;7.348;2023-03-21T12:57:45;56.72;;;39.58;;
76155;SDS011;64906;51.290;7.348;2023-03-21T13:08:40;59.10;;;42.80;;
76155;SDS011;64906;51.290;7.348;2023-03-21T13:10:47;58.15;;;40.42;;
76155;SDS011;64906;51.290;7.348;2023-03-21T13:21:36;54.65;;;39.15;;
76155;SDS011;64906;51.290;7.348;2023-03-21T13:24:32;50.20;;;35.53;;
76155;SDS011;64906;51.290;7.348;2023-03-21T13:27:06;53.03;;;36.78;;
76155;SDS011;64906;51.290;7.348;2023-03-21T13:29:49;52.63;;;38.90;;
76155;SDS011;64906;51.290;7.348;2023-03-21T13:34:44;52.38;;;39.47;;
76155;SDS011;64906;51.290;7.348;2023-03-21T13:37:16;54.60;;;37.67;;
76155;SDS011;64906;51.290;7.348;2023-03-21T13:39:44;52.28;;;38.10;;
76155;SDS011;64906;51.290;7.348;2023-03-21T13:42:16;51.50;;;37.13;;
76155;SDS011;64906;51.290;7.348;2023-03-21T13:44:47;49.83;;;37.33;;
76155;SDS011;64906;51.290;7.348;2023-03-21T13:50:49;48.55;;;35.53;;
76155;SDS011;64906;51.290;7.348;2023-03-21T13:53:23;48.13;;;35.70;;
76155;SDS011;64906;51.290;7.348;2023-03-21T13:55:58;52.83;;;36.28;;
76155;SDS011;64906;51.290;7.348;2023-03-21T14:04:01;47.63;;;35.42;;
76155;SDS011;64906;51.290;7.348;2023-03-21T14:06:41;44.47;;;31.55;;
76155;SDS011;64906;51.290;7.348;2023-03-21T14:09:20;46.75;;;35.05;;
76155;SDS011;64906;51.290;7.348;2023-03-21T14:11:51;47.45;;;34.05;;
76155;SDS011;64906;51.290;7.348;2023-03-21T14:14:21;46.00;;;34.45;;
76155;SDS011;64906;51.290;7.348;2023-03-21T14:16:51;49.72;;;35.58;;
76155;SDS011;64906;51.290;7.348;2023-03-21T14:19:17;47.03;;;34.72;;
76155;SDS011;64906;51.290;7.348;2023-03-21T14:21:47;44.90;;;34.33;;
76155;SDS011;64906;51.290;7.348;2023-03-21T14:24:15;45.42;;;33.65;;
76155;SDS011;64906;51.290;7.348;2023-03-21T14:26:44;45.88;;;33.97;;
76155;SDS011;64906;51.290;7.348;2023-03-21T14:29:24;47.45;;;32.65;;
76155;SDS011;64906;51.290;7.348;2023-03-21T14:32:00;44.15;;;32.20;;
76155;SDS011;64906;51.290;7.348;2023-03-21T14:34:27;47.70;;;31.55;;
76155;SDS011;64906;51.290;7.348;2023-03-21T14:36:55;41.58;;;31.60;;
76155;SDS011;64906;51.290;7.348;2023-03-21T14:39:22;43.10;;;31.67;;
76155;SDS011;64906;51.290;7.348;2023-03-21T14:41:52;40.30;;;31.30;;
76155;SDS011;64906;51.290;7.348;2023-03-21T14:44:26;44.03;;;31.58;;
76155;SDS011;64906;51.290;7.348;2023-03-21T14:47:04;40.50;;;30.92;;
76155;SDS011;64906;51.290;7.348;2023-03-21T14:49:41;43.67;;;30.77;;
76155;SDS011;64906;51.290;7.348;2023-03-21T14:52:10;44.22;;;32.25;;
76155;SDS011;64906;51.290;7.348;2023-03-21T14:54:48;41.95;;;30.23;;
76155;SDS011;64906;51.290;7.348;2023-03-21T14:57:15;42.13;;;29.58;;
76155;SDS011;64906;51.290;7.348;2023-03-21T14:59:45;39.58;;;30.85;;
76155;SDS011;64906;51.290;7.348;2023-03-21T15:02:16;42.03;;;31.05;;
76155;SDS011;64906;51.290;7.348;2023-03-21T15:04:45;38.58;;;27.35;;
76155;SDS011;64906;51.290;7.348;2023-03-21T15:07:27;39.17;;;30.20;;
76155;SDS011;64906;51.290;7.348;2023-03-21T15:09:56;38.10;;;28.52;;
76155;SDS011;64906;51.290;7.348;2023-03-21T15:12:28;39.95;;;29.48;;
76155;SDS011;64906;51.290;7.348;2023-03-21T15:14:55;38.72;;;28.48;;
76155;SDS011;64906;51.290;7.348;2023-03-21T15:17:21;35.97;;;29.13;;
76155;SDS011;64906;51.290;7.348;2023-03-21T15:19:48;38.63;;;28.73;;
76155;SDS011;64906;51.290;7.348;2023-03-21T15:22:20;38.42;;;29.27;;
76155;SDS011;64906;51.290;7.348;2023-03-21T15:24:57;40.50;;;28.77;;
76155;SDS011;64906;51.290;7.348;2023-03-21T15:27:26;40.55;;;28.63;;
76155;SDS011;64906;51.290;7.348;2023-03-21T15:29:54;37.83;;;28.88;;
76155;SDS011;64906;51.290;7.348;2023-03-21T15:32:22;34.03;;;26.75;;
76155;SDS011;64906;51.290;7.348;2023-03-21T15:34:50;35.90;;;28.02;;
76155;SDS011;64906;51.290;7.348;2023-03-21T15:37:27;38.28;;;27.50;;
76155;SDS011;64906;51.290;7.348;2023-03-21T15:40:05;33.22;;;25.63;;
76155;SDS011;64906;51.290;7.348;2023-03-21T15:42:42;34.53;;;26.42;;
76155;SDS011;64906;51.290;7.348;2023-03-21T15:45:21;34.92;;;26.75;;
76155;SDS011;64906;51.290;7.348;2023-03-21T15:47:58;35.92;;;26.67;;
76155;SDS011;64906;51.290;7.348;2023-03-21T15:53:00;34.58;;;24.02;;
76155;SDS011;64906;51.290;7.348;2023-03-21T15:56:02;36.97;;;26.55;;
76155;SDS011;64906;51.290;7.348;2023-03-21T15:58:22;35.10;;;26.65;;
76155;SDS011;64906;51.290;7.348;2023-03-21T16:00:51;33.60;;;26.42;;
76155;SDS011;64906;51.290;7.348;2023-03-21T16:03:26;34.78;;;25.92;;
76155;SDS011;64906;51.290;7.348;2023-03-21T16:08:42;34.95;;;26.45;;
76155;SDS011;64906;51.290;7.348;2023-03-21T16:13:41;32.80;;;25.60;;
76155;SDS011;64906;51.290;7.348;2023-03-21T16:16:10;33.85;;;25.38;;
76155;SDS011;64906;51.290;7.348;2023-03-21T16:18:41;34.13;;;26.98;;
76155;SDS011;64906;51.290;7.348;2023-03-21T16:21:08;33.92;;;26.00;;
76155;SDS011;64906;51.290;7.348;2023-03-21T16:23:36;32.80;;;25.25;;
76155;SDS011;64906;51.290;7.348;2023-03-21T16:26:01;32.73;;;25.60;;
76155;SDS011;64906;51.290;7.348;2023-03-21T16:28:29;31.75;;;24.10;;
76155;SDS011;64906;51.290;7.348;2023-03-21T16:30:54;30.85;;;24.38;;
76155;SDS011;64906;51.290;7.348;2023-03-21T16:33:20;32.35;;;24.13;;
76155;SDS011;64906;51.290;7.348;2023-03-21T16:35:46;31.63;;;24.02;;
76155;SDS011;64906;51.290;7.348;2023-03-21T16:38:11;31.05;;;22.83;;
76155;SDS011;64906;51.290;7.348;2023-03-21T16:40:38;31.60;;;24.75;;
76155;SDS011;64906;51.290;7.348;2023-03-21T16:43:06;34.17;;;25.65;;
76155;SDS011;64906;51.290;7.348;2023-03-21T16:45:31;32.28;;;24.10;;
76155;SDS011;64906;51.290;7.348;2023-03-21T16:47:57;30.98;;;23.60;;
76155;SDS011;64906;51.290;7.348;2023-03-21T16:50:29;30.30;;;23.65;;
76155;SDS011;64906;51.290;7.348;2023-03-21T16:52:57;31.90;;;24.33;;
76155;SDS011;64906;51.290;7.348;2023-03-21T16:55:23;30.15;;;23.75;;
76155;SDS011;64906;51.290;7.348;2023-03-21T16:57:49;29.30;;;23.35;;